Strona główna
METAR-TAF:

METAR-TAF

Lotnisko :

Vlissingen, Holandia

Szerokość geograficzna: 51-27N, Długość geograficzna: 3-36E, wysokość: 10 m

Aktualna obserwacja pogody

Raport powstał 44 minut temu, godzina 22:25 UTC
Wiatr 13 kt od południowy zachód
Temperatura 6°C
Wilgotność 87%
Ciśnienie 1002 hPa
Widzialność 10 km lub więcej

METAR: EHFS 112225Z AUTO 22013KT 9999 BKN031/// BKN036/// 06/04 Q1002

czas: 00:09 (23:09 UTC)


TAF: brakujący

Obserwacja i prognoza pogody dla ponad 4000 lotnisk (raport METAR i TAF).

Dostępne stacje oznaczono żółtymi i czerwonymi punktami na mapie.

Najedź kursorem aby zobaczyć nazwę stacji.

Kliknij aby zobaczyć obserwacje i prognozy pogody.

Aby zmienić mapę: kliknij na zielony przycisk z czarnym krzyżykiem, aby powiększyć; na zielony przycisk z myślnikiem, aby pomniejszyć; na zielone strzałki, aby przejść do map sąsiednich.


METAR-TAF: